Rossville, KS

1:32 PM CDT on August 28, 2015 (GMT -0500)
62nd St | | Change Station
CLOSE
Current Station
Personal Weather Station
Location: Rossville, KS
Elevation: 1033 ft
Nearby Weather Stations

Elev 1033 ft 39.16 °N, 95.94 °W | Updated 0 second ago

Partly Cloudy
Partly Cloudy
83.2 °F
Feels Like 87 °F
N
12.1
Wind Variable Wind from SSW
Gusts 25.2 mph

Today
High -- | Low -- °F
--% Chance of Precip.
Yesterday
High -- | Low -- °F
Precip. -- in
6:48 AM 8:00 PM
Waxing Gibbous, 98% visible
Pressure 29.88 in
Visibility 10.0 miles
Clouds Mostly Cloudy 10000 ft
Heat Index 87 °F
Dew Point 69 °F
Humidity 62%
Rainfall 0.13 in
Snow Depth Not available.
UV 5 out of 12
Pollen 6.10 out of 12
Air Quality Not available.
Flu Activity Not available.
METAR KTOP 281753Z 19009G15KT 10SM BKN100 28/20 A2991 RMK AO2 SLP119 60009 T02780200 10278 20206 58001
Pressure 29.88 in
Visibility 10.0 miles
Clouds Mostly Cloudy 10000 ft
Heat Index 87 °F
Dew Point 69 °F
Humidity 62%
Rainfall 0.13 in
Snow Depth Not available.
UV 5 out of 12
Pollen 6.10 out of 12
Air Quality Not available.
Flu Activity Not available.
METAR KTOP 281753Z 19009G15KT 10SM BKN100 28/20 A2991 RMK AO2 SLP119 60009 T02780200 10278 20206 58001

10-Day Weather Forecast

×

Almanac

Astronomy

Aug. 28, 2015 Rise Set
Actual Time
Civil Twilight
Nautical Twilight
Astronomical Twilight
Moon
Length of Visible Light
Length of Day
Tomorrow will be .
, % of the Moon is Illuminated

Today's Extremes

State Highs State Lows

Community

WunderPhotos

Upload Photos

1,850,453 photos uploaded!

WunderBlogs® & News

Nearby

Air Quality

  Air Quality AQ Index Pollutant
Not available.

Snow Depth

Station Depth Elevation

Earthquake Activity

City Distance Mag. Time & Date
Minimum magnitude displayed is 2.5.

Coastal Water Temperatures

Place Temperature

Stations

Nearby Weather Stations

Station Location Temp. Windchill Dew Point Humidity Wind Precip. Elev Updated Type